sensor_id;sensor_type;location;lat;lon;timestamp;P1;durP1;ratioP1;P2;durP2;ratioP2
58876;SDS011;44659;47.002;9.536;2022-08-18T00:02:22;4.63;;;2.53;;
58876;SDS011;44659;47.002;9.536;2022-08-18T00:04:48;5.63;;;2.72;;
58876;SDS011;44659;47.002;9.536;2022-08-18T00:07:15;6.40;;;2.30;;
58876;SDS011;44659;47.002;9.536;2022-08-18T00:09:41;4.00;;;2.40;;
58876;SDS011;44659;47.002;9.536;2022-08-18T00:12:08;7.35;;;2.55;;
58876;SDS011;44659;47.002;9.536;2022-08-18T00:14:34;4.82;;;2.38;;
58876;SDS011;44659;47.002;9.536;2022-08-18T00:16:59;3.20;;;2.23;;
58876;SDS011;44659;47.002;9.536;2022-08-18T00:19:24;3.30;;;1.80;;
58876;SDS011;44659;47.002;9.536;2022-08-18T00:21:50;4.53;;;2.15;;
58876;SDS011;44659;47.002;9.536;2022-08-18T00:24:15;3.63;;;2.00;;
58876;SDS011;44659;47.002;9.536;2022-08-18T00:26:53;4.80;;;2.33;;
58876;SDS011;44659;47.002;9.536;2022-08-18T00:29:19;4.05;;;2.22;;
58876;SDS011;44659;47.002;9.536;2022-08-18T00:31:44;5.57;;;2.50;;
58876;SDS011;44659;47.002;9.536;2022-08-18T00:34:09;4.73;;;2.20;;
58876;SDS011;44659;47.002;9.536;2022-08-18T00:36:34;4.00;;;2.30;;
58876;SDS011;44659;47.002;9.536;2022-08-18T00:39:08;3.33;;;2.05;;
58876;SDS011;44659;47.002;9.536;2022-08-18T00:41:33;5.32;;;2.25;;
58876;SDS011;44659;47.002;9.536;2022-08-18T00:43:58;3.75;;;1.90;;
58876;SDS011;44659;47.002;9.536;2022-08-18T00:46:25;3.50;;;1.93;;
58876;SDS011;44659;47.002;9.536;2022-08-18T00:48:50;3.45;;;1.90;;
58876;SDS011;44659;47.002;9.536;2022-08-18T00:51:38;3.33;;;2.10;;
58876;SDS011;44659;47.002;9.536;2022-08-18T00:54:04;4.10;;;2.10;;
58876;SDS011;44659;47.002;9.536;2022-08-18T00:56:33;3.83;;;1.80;;
58876;SDS011;44659;47.002;9.536;2022-08-18T01:01:43;3.72;;;1.98;;
58876;SDS011;44659;47.002;9.536;2022-08-18T01:04:17;3.63;;;1.98;;
58876;SDS011;44659;47.002;9.536;2022-08-18T01:06:49;5.22;;;2.38;;
58876;SDS011;44659;47.002;9.536;2022-08-18T01:09:16;3.70;;;2.05;;
58876;SDS011;44659;47.002;9.536;2022-08-18T01:11:41;3.45;;;2.15;;
58876;SDS011;44659;47.002;9.536;2022-08-18T01:14:07;5.37;;;2.03;;
58876;SDS011;44659;47.002;9.536;2022-08-18T01:16:33;5.03;;;2.00;;
58876;SDS011;44659;47.002;9.536;2022-08-18T01:19:17;3.90;;;2.30;;
58876;SDS011;44659;47.002;9.536;2022-08-18T01:22:04;5.68;;;2.30;;
58876;SDS011;44659;47.002;9.536;2022-08-18T01:24:30;5.47;;;2.63;;
58876;SDS011;44659;47.002;9.536;2022-08-18T01:27:24;3.97;;;2.28;;
58876;SDS011;44659;47.002;9.536;2022-08-18T01:29:50;4.10;;;2.42;;
58876;SDS011;44659;47.002;9.536;2022-08-18T01:32:17;4.47;;;2.30;;
58876;SDS011;44659;47.002;9.536;2022-08-18T01:34:43;4.70;;;2.70;;
58876;SDS011;44659;47.002;9.536;2022-08-18T01:37:12;4.00;;;2.38;;
58876;SDS011;44659;47.002;9.536;2022-08-18T01:39:37;4.05;;;2.40;;
58876;SDS011;44659;47.002;9.536;2022-08-18T01:42:02;5.07;;;2.60;;
58876;SDS011;44659;47.002;9.536;2022-08-18T01:44:31;5.47;;;2.33;;
58876;SDS011;44659;47.002;9.536;2022-08-18T01:46:57;3.80;;;2.10;;
58876;SDS011;44659;47.002;9.536;2022-08-18T01:49:22;6.27;;;2.57;;
58876;SDS011;44659;47.002;9.536;2022-08-18T01:51:48;4.80;;;2.40;;
58876;SDS011;44659;47.002;9.536;2022-08-18T01:54:14;4.95;;;2.42;;
58876;SDS011;44659;47.002;9.536;2022-08-18T01:56:40;6.05;;;2.28;;
58876;SDS011;44659;47.002;9.536;2022-08-18T01:59:06;3.88;;;2.17;;
58876;SDS011;44659;47.002;9.536;2022-08-18T02:01:37;7.43;;;2.30;;
58876;SDS011;44659;47.002;9.536;2022-08-18T02:04:02;4.60;;;2.85;;
58876;SDS011;44659;47.002;9.536;2022-08-18T02:06:29;4.07;;;2.60;;
58876;SDS011;44659;47.002;9.536;2022-08-18T02:08:55;5.67;;;2.50;;
58876;SDS011;44659;47.002;9.536;2022-08-18T02:11:20;3.70;;;2.20;;
58876;SDS011;44659;47.002;9.536;2022-08-18T02:13:45;3.07;;;1.80;;
58876;SDS011;44659;47.002;9.536;2022-08-18T02:16:10;4.57;;;2.72;;
58876;SDS011;44659;47.002;9.536;2022-08-18T02:18:36;4.17;;;2.27;;
58876;SDS011;44659;47.002;9.536;2022-08-18T02:21:08;3.63;;;2.17;;
58876;SDS011;44659;47.002;9.536;2022-08-18T02:23:34;5.47;;;2.47;;
58876;SDS011;44659;47.002;9.536;2022-08-18T02:26:04;8.23;;;2.47;;
58876;SDS011;44659;47.002;9.536;2022-08-18T02:28:29;3.95;;;2.08;;
58876;SDS011;44659;47.002;9.536;2022-08-18T02:30:54;3.87;;;2.43;;
58876;SDS011;44659;47.002;9.536;2022-08-18T02:33:20;4.77;;;2.20;;
58876;SDS011;44659;47.002;9.536;2022-08-18T02:35:50;4.22;;;2.30;;
58876;SDS011;44659;47.002;9.536;2022-08-18T02:38:17;6.45;;;2.30;;
58876;SDS011;44659;47.002;9.536;2022-08-18T02:40:43;3.90;;;2.40;;
58876;SDS011;44659;47.002;9.536;2022-08-18T02:43:10;5.20;;;2.72;;
58876;SDS011;44659;47.002;9.536;2022-08-18T02:45:36;4.20;;;2.58;;
58876;SDS011;44659;47.002;9.536;2022-08-18T02:48:02;5.50;;;2.67;;
58876;SDS011;44659;47.002;9.536;2022-08-18T02:50:27;5.90;;;2.72;;
58876;SDS011;44659;47.002;9.536;2022-08-18T02:52:53;4.47;;;2.42;;
58876;SDS011;44659;47.002;9.536;2022-08-18T02:55:19;5.43;;;2.60;;
58876;SDS011;44659;47.002;9.536;2022-08-18T02:57:45;5.55;;;3.05;;
58876;SDS011;44659;47.002;9.536;2022-08-18T03:00:12;4.55;;;2.75;;
58876;SDS011;44659;47.002;9.536;2022-08-18T03:02:39;5.40;;;3.00;;
58876;SDS011;44659;47.002;9.536;2022-08-18T03:05:05;8.70;;;3.42;;
58876;SDS011;44659;47.002;9.536;2022-08-18T03:07:31;8.70;;;3.90;;
58876;SDS011;44659;47.002;9.536;2022-08-18T03:09:56;11.47;;;3.57;;
58876;SDS011;44659;47.002;9.536;2022-08-18T03:12:21;7.60;;;3.80;;
58876;SDS011;44659;47.002;9.536;2022-08-18T03:14:46;8.27;;;4.20;;
58876;SDS011;44659;47.002;9.536;2022-08-18T03:17:12;6.10;;;3.70;;
58876;SDS011;44659;47.002;9.536;2022-08-18T03:19:38;5.70;;;3.53;;
58876;SDS011;44659;47.002;9.536;2022-08-18T03:22:06;6.00;;;3.50;;
58876;SDS011;44659;47.002;9.536;2022-08-18T03:24:33;6.75;;;3.85;;
58876;SDS011;44659;47.002;9.536;2022-08-18T03:26:58;6.35;;;3.70;;
58876;SDS011;44659;47.002;9.536;2022-08-18T03:29:24;8.82;;;3.92;;
58876;SDS011;44659;47.002;9.536;2022-08-18T03:31:49;10.65;;;4.75;;
58876;SDS011;44659;47.002;9.536;2022-08-18T03:34:16;7.03;;;4.10;;
58876;SDS011;44659;47.002;9.536;2022-08-18T03:36:43;7.60;;;4.40;;
58876;SDS011;44659;47.002;9.536;2022-08-18T03:39:10;8.82;;;4.07;;
58876;SDS011;44659;47.002;9.536;2022-08-18T03:41:36;8.38;;;4.18;;
58876;SDS011;44659;47.002;9.536;2022-08-18T03:44:02;6.47;;;4.03;;
58876;SDS011;44659;47.002;9.536;2022-08-18T03:46:27;5.90;;;3.60;;
58876;SDS011;44659;47.002;9.536;2022-08-18T03:48:54;8.70;;;4.00;;
58876;SDS011;44659;47.002;9.536;2022-08-18T03:51:25;6.45;;;3.90;;
58876;SDS011;44659;47.002;9.536;2022-08-18T03:53:50;11.40;;;4.38;;
58876;SDS011;44659;47.002;9.536;2022-08-18T03:56:22;9.00;;;4.25;;
58876;SDS011;44659;47.002;9.536;2022-08-18T03:58:49;9.13;;;4.32;;
58876;SDS011;44659;47.002;9.536;2022-08-18T04:01:16;7.15;;;3.97;;
58876;SDS011;44659;47.002;9.536;2022-08-18T04:03:42;6.75;;;3.58;;
58876;SDS011;44659;47.002;9.536;2022-08-18T04:06:07;7.07;;;3.83;;
58876;SDS011;44659;47.002;9.536;2022-08-18T04:08:33;10.15;;;4.50;;
58876;SDS011;44659;47.002;9.536;2022-08-18T04:10:58;7.03;;;4.20;;
58876;SDS011;44659;47.002;9.536;2022-08-18T04:13:23;8.20;;;4.40;;
58876;SDS011;44659;47.002;9.536;2022-08-18T04:15:48;9.90;;;4.80;;
58876;SDS011;44659;47.002;9.536;2022-08-18T04:18:13;6.80;;;4.60;;
58876;SDS011;44659;47.002;9.536;2022-08-18T04:20:39;7.80;;;5.10;;
58876;SDS011;44659;47.002;9.536;2022-08-18T04:23:04;10.13;;;5.32;;
58876;SDS011;44659;47.002;9.536;2022-08-18T04:25:30;9.80;;;5.35;;
58876;SDS011;44659;47.002;9.536;2022-08-18T04:27:56;9.00;;;4.82;;
58876;SDS011;44659;47.002;9.536;2022-08-18T04:30:24;10.98;;;5.53;;
58876;SDS011;44659;47.002;9.536;2022-08-18T04:32:49;10.35;;;5.13;;
58876;SDS011;44659;47.002;9.536;2022-08-18T04:35:15;9.63;;;5.60;;
58876;SDS011;44659;47.002;9.536;2022-08-18T04:37:40;13.30;;;5.05;;
58876;SDS011;44659;47.002;9.536;2022-08-18T04:40:07;10.75;;;5.05;;
58876;SDS011;44659;47.002;9.536;2022-08-18T04:42:33;9.35;;;4.90;;
58876;SDS011;44659;47.002;9.536;2022-08-18T04:44:58;9.07;;;4.87;;
58876;SDS011;44659;47.002;9.536;2022-08-18T04:47:23;6.70;;;3.67;;
58876;SDS011;44659;47.002;9.536;2022-08-18T04:49:48;6.50;;;3.80;;
58876;SDS011;44659;47.002;9.536;2022-08-18T04:52:14;5.35;;;3.45;;
58876;SDS011;44659;47.002;9.536;2022-08-18T04:54:58;6.95;;;2.88;;
58876;SDS011;44659;47.002;9.536;2022-08-18T05:18:37;4.95;;;2.72;;
58876;SDS011;44659;47.002;9.536;2022-08-18T05:21:04;7.20;;;3.60;;
58876;SDS011;44659;47.002;9.536;2022-08-18T05:23:29;7.40;;;3.50;;
58876;SDS011;44659;47.002;9.536;2022-08-18T05:25:56;6.68;;;3.30;;
58876;SDS011;44659;47.002;9.536;2022-08-18T06:03:11;4.45;;;2.67;;
58876;SDS011;44659;47.002;9.536;2022-08-18T06:05:48;8.18;;;3.33;;
58876;SDS011;44659;47.002;9.536;2022-08-18T06:08:16;7.45;;;3.33;;
58876;SDS011;44659;47.002;9.536;2022-08-18T06:10:43;6.07;;;3.00;;
58876;SDS011;44659;47.002;9.536;2022-08-18T06:13:09;6.10;;;3.13;;
58876;SDS011;44659;47.002;9.536;2022-08-18T06:18:07;7.70;;;3.03;;
58876;SDS011;44659;47.002;9.536;2022-08-18T06:23:16;4.50;;;2.60;;
58876;SDS011;44659;47.002;9.536;2022-08-18T06:25:48;7.35;;;2.70;;
58876;SDS011;44659;47.002;9.536;2022-08-18T06:28:16;5.85;;;2.70;;
58876;SDS011;44659;47.002;9.536;2022-08-18T06:35:58;6.40;;;2.80;;
58876;SDS011;44659;47.002;9.536;2022-08-18T06:41:32;6.75;;;3.13;;
58876;SDS011;44659;47.002;9.536;2022-08-18T06:43:59;6.07;;;3.17;;
58876;SDS011;44659;47.002;9.536;2022-08-18T06:46:30;10.57;;;3.15;;
58876;SDS011;44659;47.002;9.536;2022-08-18T06:48:58;6.63;;;2.72;;
58876;SDS011;44659;47.002;9.536;2022-08-18T06:51:27;6.32;;;2.92;;
58876;SDS011;44659;47.002;9.536;2022-08-18T06:54:00;7.65;;;3.22;;
58876;SDS011;44659;47.002;9.536;2022-08-18T06:56:27;5.13;;;2.90;;
58876;SDS011;44659;47.002;9.536;2022-08-18T06:59:11;5.43;;;2.80;;
58876;SDS011;44659;47.002;9.536;2022-08-18T07:01:37;6.05;;;3.40;;
58876;SDS011;44659;47.002;9.536;2022-08-18T07:04:03;10.70;;;3.70;;
58876;SDS011;44659;47.002;9.536;2022-08-18T07:06:29;7.63;;;3.40;;
58876;SDS011;44659;47.002;9.536;2022-08-18T07:08:55;5.80;;;3.20;;
58876;SDS011;44659;47.002;9.536;2022-08-18T07:11:40;6.57;;;3.45;;
58876;SDS011;44659;47.002;9.536;2022-08-18T07:14:20;9.57;;;3.28;;
58876;SDS011;44659;47.002;9.536;2022-08-18T07:16:46;8.32;;;3.10;;
58876;SDS011;44659;47.002;9.536;2022-08-18T07:19:15;5.28;;;2.53;;
58876;SDS011;44659;47.002;9.536;2022-08-18T07:21:42;5.32;;;2.60;;
58876;SDS011;44659;47.002;9.536;2022-08-18T07:29:26;5.47;;;3.05;;
58876;SDS011;44659;47.002;9.536;2022-08-18T07:31:53;6.03;;;3.00;;
58876;SDS011;44659;47.002;9.536;2022-08-18T07:34:19;5.57;;;3.25;;
58876;SDS011;44659;47.002;9.536;2022-08-18T07:36:51;7.80;;;3.03;;
58876;SDS011;44659;47.002;9.536;2022-08-18T07:44:35;5.78;;;3.15;;
58876;SDS011;44659;47.002;9.536;2022-08-18T07:47:05;8.50;;;3.45;;
58876;SDS011;44659;47.002;9.536;2022-08-18T07:49:45;8.38;;;3.58;;
58876;SDS011;44659;47.002;9.536;2022-08-18T07:57:45;6.10;;;3.22;;
58876;SDS011;44659;47.002;9.536;2022-08-18T08:08:13;7.57;;;3.35;;
58876;SDS011;44659;47.002;9.536;2022-08-18T08:11:02;7.07;;;4.15;;
58876;SDS011;44659;47.002;9.536;2022-08-18T08:13:43;7.60;;;4.10;;
58876;SDS011;44659;47.002;9.536;2022-08-18T08:19:02;6.75;;;4.30;;
58876;SDS011;44659;47.002;9.536;2022-08-18T08:21:30;6.18;;;4.18;;
58876;SDS011;44659;47.002;9.536;2022-08-18T08:26:28;6.65;;;4.20;;
58876;SDS011;44659;47.002;9.536;2022-08-18T08:34:11;5.97;;;3.35;;
58876;SDS011;44659;47.002;9.536;2022-08-18T08:36:39;5.93;;;3.67;;
58876;SDS011;44659;47.002;9.536;2022-08-18T08:39:17;6.93;;;3.30;;
58876;SDS011;44659;47.002;9.536;2022-08-18T08:41:49;7.78;;;3.40;;
58876;SDS011;44659;47.002;9.536;2022-08-18T08:44:19;5.45;;;3.22;;
58876;SDS011;44659;47.002;9.536;2022-08-18T08:46:47;6.70;;;3.05;;
58876;SDS011;44659;47.002;9.536;2022-08-18T08:51:59;5.72;;;3.25;;
58876;SDS011;44659;47.002;9.536;2022-08-18T08:54:26;5.90;;;3.40;;
58876;SDS011;44659;47.002;9.536;2022-08-18T08:56:54;5.28;;;3.28;;
58876;SDS011;44659;47.002;9.536;2022-08-18T08:59:20;5.90;;;3.00;;
58876;SDS011;44659;47.002;9.536;2022-08-18T09:11:40;4.93;;;3.10;;
58876;SDS011;44659;47.002;9.536;2022-08-18T09:19:23;8.57;;;3.43;;
58876;SDS011;44659;47.002;9.536;2022-08-18T09:22:05;5.85;;;3.13;;
58876;SDS011;44659;47.002;9.536;2022-08-18T09:24:43;6.28;;;3.38;;
58876;SDS011;44659;47.002;9.536;2022-08-18T09:29:54;5.50;;;2.70;;
58876;SDS011;44659;47.002;9.536;2022-08-18T09:37:52;4.78;;;2.50;;
58876;SDS011;44659;47.002;9.536;2022-08-18T09:43:32;6.55;;;3.03;;
58876;SDS011;44659;47.002;9.536;2022-08-18T09:45:59;6.50;;;3.35;;
58876;SDS011;44659;47.002;9.536;2022-08-18T09:48:29;8.73;;;3.13;;
58876;SDS011;44659;47.002;9.536;2022-08-18T09:50:56;8.13;;;4.00;;
58876;SDS011;44659;47.002;9.536;2022-08-18T09:54:06;7.93;;;3.38;;
58876;SDS011;44659;47.002;9.536;2022-08-18T09:56:15;5.35;;;3.28;;
58876;SDS011;44659;47.002;9.536;2022-08-18T09:58:49;6.85;;;3.35;;
58876;SDS011;44659;47.002;9.536;2022-08-18T10:03:42;7.15;;;3.35;;
58876;SDS011;44659;47.002;9.536;2022-08-18T10:06:16;6.50;;;2.93;;
58876;SDS011;44659;47.002;9.536;2022-08-18T10:11:17;6.13;;;3.50;;
58876;SDS011;44659;47.002;9.536;2022-08-18T10:16:30;5.78;;;3.75;;
58876;SDS011;44659;47.002;9.536;2022-08-18T10:19:17;9.52;;;3.75;;
58876;SDS011;44659;47.002;9.536;2022-08-18T10:21:59;8.00;;;3.70;;
58876;SDS011;44659;47.002;9.536;2022-08-18T10:25:07;5.70;;;3.45;;
58876;SDS011;44659;47.002;9.536;2022-08-18T10:27:33;6.60;;;3.90;;
58876;SDS011;44659;47.002;9.536;2022-08-18T10:29:59;7.53;;;4.15;;
58876;SDS011;44659;47.002;9.536;2022-08-18T10:32:35;7.50;;;4.15;;
58876;SDS011;44659;47.002;9.536;2022-08-18T10:35:01;7.03;;;4.90;;
58876;SDS011;44659;47.002;9.536;2022-08-18T10:37:31;8.00;;;4.13;;
58876;SDS011;44659;47.002;9.536;2022-08-18T10:45:11;7.93;;;4.23;;
58876;SDS011;44659;47.002;9.536;2022-08-18T11:15:17;7.72;;;5.00;;
58876;SDS011;44659;47.002;9.536;2022-08-18T11:17:47;7.60;;;4.70;;
58876;SDS011;44659;47.002;9.536;2022-08-18T11:20:15;7.75;;;4.63;;
58876;SDS011;44659;47.002;9.536;2022-08-18T11:22:51;6.93;;;4.88;;
58876;SDS011;44659;47.002;9.536;2022-08-18T11:25:19;7.72;;;5.00;;
58876;SDS011;44659;47.002;9.536;2022-08-18T11:27:47;8.02;;;4.80;;
58876;SDS011;44659;47.002;9.536;2022-08-18T11:30:12;8.10;;;5.38;;
58876;SDS011;44659;47.002;9.536;2022-08-18T11:32:38;8.25;;;5.25;;
58876;SDS011;44659;47.002;9.536;2022-08-18T11:51:23;7.28;;;4.75;;
58876;SDS011;44659;47.002;9.536;2022-08-18T11:53:54;7.43;;;4.70;;
58876;SDS011;44659;47.002;9.536;2022-08-18T11:56:22;7.35;;;4.38;;
58876;SDS011;44659;47.002;9.536;2022-08-18T11:58:50;10.52;;;4.82;;
58876;SDS011;44659;47.002;9.536;2022-08-18T12:01:31;6.40;;;4.22;;
58876;SDS011;44659;47.002;9.536;2022-08-18T12:06:50;6.47;;;4.30;;
58876;SDS011;44659;47.002;9.536;2022-08-18T12:12:06;6.63;;;4.03;;
58876;SDS011;44659;47.002;9.536;2022-08-18T12:14:51;6.88;;;4.10;;
58876;SDS011;44659;47.002;9.536;2022-08-18T12:41:35;8.73;;;4.95;;
58876;SDS011;44659;47.002;9.536;2022-08-18T12:44:11;7.10;;;4.97;;
58876;SDS011;44659;47.002;9.536;2022-08-18T12:46:49;7.15;;;4.95;;
58876;SDS011;44659;47.002;9.536;2022-08-18T12:49:18;9.75;;;5.13;;
58876;SDS011;44659;47.002;9.536;2022-08-18T12:51:44;7.85;;;5.20;;
58876;SDS011;44659;47.002;9.536;2022-08-18T12:54:09;7.97;;;5.18;;
58876;SDS011;44659;47.002;9.536;2022-08-18T13:30:32;6.10;;;3.92;;
58876;SDS011;44659;47.002;9.536;2022-08-18T13:32:57;7.47;;;4.40;;
58876;SDS011;44659;47.002;9.536;2022-08-18T13:35:23;8.82;;;3.90;;
58876;SDS011;44659;47.002;9.536;2022-08-18T13:37:48;9.82;;;3.40;;
58876;SDS011;44659;47.002;9.536;2022-08-18T13:40:13;9.83;;;3.67;;
58876;SDS011;44659;47.002;9.536;2022-08-18T13:42:40;7.93;;;4.28;;
58876;SDS011;44659;47.002;9.536;2022-08-18T13:45:06;8.00;;;3.97;;
58876;SDS011;44659;47.002;9.536;2022-08-18T13:47:31;7.15;;;4.18;;
58876;SDS011;44659;47.002;9.536;2022-08-18T13:49:57;7.30;;;4.75;;
58876;SDS011;44659;47.002;9.536;2022-08-18T13:52:23;8.90;;;4.45;;
58876;SDS011;44659;47.002;9.536;2022-08-18T13:54:49;10.40;;;4.87;;
58876;SDS011;44659;47.002;9.536;2022-08-18T13:57:14;10.03;;;4.47;;
58876;SDS011;44659;47.002;9.536;2022-08-18T13:59:39;9.23;;;5.13;;
58876;SDS011;44659;47.002;9.536;2022-08-18T14:02:06;10.53;;;5.83;;
58876;SDS011;44659;47.002;9.536;2022-08-18T14:04:32;10.23;;;6.55;;
58876;SDS011;44659;47.002;9.536;2022-08-18T14:06:58;10.48;;;5.90;;
58876;SDS011;44659;47.002;9.536;2022-08-18T14:09:25;11.25;;;6.40;;
58876;SDS011;44659;47.002;9.536;2022-08-18T14:11:50;9.07;;;5.65;;
58876;SDS011;44659;47.002;9.536;2022-08-18T14:14:15;12.57;;;5.70;;
58876;SDS011;44659;47.002;9.536;2022-08-18T14:16:41;8.63;;;5.38;;
58876;SDS011;44659;47.002;9.536;2022-08-18T14:19:06;9.33;;;5.77;;
58876;SDS011;44659;47.002;9.536;2022-08-18T14:21:51;10.65;;;6.10;;
58876;SDS011;44659;47.002;9.536;2022-08-18T14:24:35;9.48;;;5.68;;
58876;SDS011;44659;47.002;9.536;2022-08-18T14:27:23;11.15;;;6.43;;
58876;SDS011;44659;47.002;9.536;2022-08-18T14:29:48;10.25;;;6.32;;
58876;SDS011;44659;47.002;9.536;2022-08-18T14:32:16;10.90;;;6.17;;
58876;SDS011;44659;47.002;9.536;2022-08-18T14:34:42;10.75;;;5.50;;
58876;SDS011;44659;47.002;9.536;2022-08-18T14:37:09;10.35;;;6.05;;
58876;SDS011;44659;47.002;9.536;2022-08-18T14:39:34;8.43;;;6.03;;
58876;SDS011;44659;47.002;9.536;2022-08-18T14:41:59;12.93;;;6.37;;
58876;SDS011;44659;47.002;9.536;2022-08-18T14:44:25;11.55;;;6.60;;
58876;SDS011;44659;47.002;9.536;2022-08-18T14:46:50;9.10;;;6.10;;
58876;SDS011;44659;47.002;9.536;2022-08-18T14:49:16;10.50;;;6.37;;
58876;SDS011;44659;47.002;9.536;2022-08-18T14:51:42;9.80;;;6.20;;
58876;SDS011;44659;47.002;9.536;2022-08-18T14:54:08;9.87;;;6.30;;
58876;SDS011;44659;47.002;9.536;2022-08-18T14:56:33;11.57;;;6.43;;
58876;SDS011;44659;47.002;9.536;2022-08-18T14:58:58;9.17;;;6.00;;
58876;SDS011;44659;47.002;9.536;2022-08-18T15:01:23;8.77;;;6.30;;
58876;SDS011;44659;47.002;9.536;2022-08-18T15:03:48;9.20;;;6.53;;
58876;SDS011;44659;47.002;9.536;2022-08-18T15:06:14;8.13;;;5.60;;
58876;SDS011;44659;47.002;9.536;2022-08-18T15:08:41;9.20;;;5.93;;
58876;SDS011;44659;47.002;9.536;2022-08-18T15:11:06;7.68;;;5.75;;
58876;SDS011;44659;47.002;9.536;2022-08-18T15:13:31;8.07;;;6.00;;
58876;SDS011;44659;47.002;9.536;2022-08-18T15:15:57;8.68;;;6.07;;
58876;SDS011;44659;47.002;9.536;2022-08-18T15:18:25;8.70;;;6.53;;
58876;SDS011;44659;47.002;9.536;2022-08-18T15:20:51;9.70;;;6.40;;
58876;SDS011;44659;47.002;9.536;2022-08-18T15:23:34;9.05;;;6.28;;
58876;SDS011;44659;47.002;9.536;2022-08-18T15:26:23;9.35;;;6.65;;
58876;SDS011;44659;47.002;9.536;2022-08-18T15:28:48;10.00;;;6.03;;
58876;SDS011;44659;47.002;9.536;2022-08-18T15:31:14;11.50;;;6.70;;
58876;SDS011;44659;47.002;9.536;2022-08-18T15:33:39;9.00;;;6.10;;
58876;SDS011;44659;47.002;9.536;2022-08-18T15:36:04;9.27;;;6.23;;
58876;SDS011;44659;47.002;9.536;2022-08-18T15:38:29;7.93;;;4.90;;
58876;SDS011;44659;47.002;9.536;2022-08-18T15:40:56;8.33;;;5.23;;
58876;SDS011;44659;47.002;9.536;2022-08-18T15:43:29;8.02;;;5.07;;
58876;SDS011;44659;47.002;9.536;2022-08-18T15:45:55;7.75;;;5.00;;
58876;SDS011;44659;47.002;9.536;2022-08-18T15:48:21;7.38;;;5.32;;
58876;SDS011;44659;47.002;9.536;2022-08-18T15:50:47;11.13;;;5.00;;
58876;SDS011;44659;47.002;9.536;2022-08-18T15:53:16;7.80;;;4.97;;
58876;SDS011;44659;47.002;9.536;2022-08-18T15:55:42;7.00;;;5.30;;
58876;SDS011;44659;47.002;9.536;2022-08-18T15:58:08;9.20;;;5.38;;
58876;SDS011;44659;47.002;9.536;2022-08-18T16:00:33;7.13;;;5.35;;
58876;SDS011;44659;47.002;9.536;2022-08-18T16:03:00;7.88;;;5.60;;
58876;SDS011;44659;47.002;9.536;2022-08-18T16:05:34;7.60;;;5.50;;
58876;SDS011;44659;47.002;9.536;2022-08-18T16:08:01;7.13;;;5.32;;
58876;SDS011;44659;47.002;9.536;2022-08-18T16:10:30;7.10;;;5.53;;
58876;SDS011;44659;47.002;9.536;2022-08-18T16:12:56;7.50;;;5.32;;
58876;SDS011;44659;47.002;9.536;2022-08-18T16:15:22;7.78;;;4.95;;
58876;SDS011;44659;47.002;9.536;2022-08-18T16:17:48;5.85;;;3.90;;
58876;SDS011;44659;47.002;9.536;2022-08-18T16:20:14;6.85;;;4.63;;
58876;SDS011;44659;47.002;9.536;2022-08-18T16:22:39;6.75;;;4.63;;
58876;SDS011;44659;47.002;9.536;2022-08-18T16:25:05;6.00;;;4.43;;
58876;SDS011;44659;47.002;9.536;2022-08-18T16:27:31;7.18;;;4.55;;
58876;SDS011;44659;47.002;9.536;2022-08-18T16:29:58;7.35;;;4.43;;
58876;SDS011;44659;47.002;9.536;2022-08-18T16:32:23;6.75;;;4.82;;
58876;SDS011;44659;47.002;9.536;2022-08-18T16:34:48;8.67;;;4.80;;
58876;SDS011;44659;47.002;9.536;2022-08-18T16:40:02;7.32;;;4.78;;
58876;SDS011;44659;47.002;9.536;2022-08-18T16:45:40;6.53;;;4.57;;
58876;SDS011;44659;47.002;9.536;2022-08-18T16:48:07;6.50;;;4.60;;
58876;SDS011;44659;47.002;9.536;2022-08-18T16:50:32;8.93;;;4.35;;
58876;SDS011;44659;47.002;9.536;2022-08-18T16:52:58;10.02;;;5.05;;
58876;SDS011;44659;47.002;9.536;2022-08-18T16:55:23;8.43;;;4.70;;
58876;SDS011;44659;47.002;9.536;2022-08-18T16:57:48;6.57;;;3.88;;
58876;SDS011;44659;47.002;9.536;2022-08-18T17:00:35;5.85;;;3.72;;
58876;SDS011;44659;47.002;9.536;2022-08-18T17:03:19;5.85;;;3.67;;
58876;SDS011;44659;47.002;9.536;2022-08-18T17:06:11;5.30;;;3.67;;
58876;SDS011;44659;47.002;9.536;2022-08-18T17:08:37;6.93;;;3.77;;
58876;SDS011;44659;47.002;9.536;2022-08-18T17:11:04;6.20;;;3.50;;
58876;SDS011;44659;47.002;9.536;2022-08-18T17:13:29;5.53;;;3.47;;
58876;SDS011;44659;47.002;9.536;2022-08-18T17:15:55;6.82;;;3.80;;
58876;SDS011;44659;47.002;9.536;2022-08-18T17:18:20;5.45;;;3.63;;
58876;SDS011;44659;47.002;9.536;2022-08-18T17:20:46;6.70;;;3.58;;
58876;SDS011;44659;47.002;9.536;2022-08-18T17:23:11;6.45;;;4.35;;
58876;SDS011;44659;47.002;9.536;2022-08-18T17:25:36;7.55;;;4.88;;
58876;SDS011;44659;47.002;9.536;2022-08-18T17:28:02;6.25;;;4.28;;
58876;SDS011;44659;47.002;9.536;2022-08-18T17:30:30;7.07;;;4.68;;
58876;SDS011;44659;47.002;9.536;2022-08-18T17:33:07;6.93;;;4.35;;
58876;SDS011;44659;47.002;9.536;2022-08-18T17:35:38;9.85;;;5.10;;
58876;SDS011;44659;47.002;9.536;2022-08-18T17:38:09;7.05;;;5.10;;
58876;SDS011;44659;47.002;9.536;2022-08-18T17:40:41;7.85;;;5.25;;
58876;SDS011;44659;47.002;9.536;2022-08-18T17:43:08;6.78;;;5.07;;
58876;SDS011;44659;47.002;9.536;2022-08-18T17:45:46;9.32;;;5.53;;
58876;SDS011;44659;47.002;9.536;2022-08-18T17:48:16;9.43;;;5.47;;
58876;SDS011;44659;47.002;9.536;2022-08-18T17:50:53;7.30;;;5.22;;
58876;SDS011;44659;47.002;9.536;2022-08-18T17:53:46;7.25;;;4.63;;
58876;SDS011;44659;47.002;9.536;2022-08-18T17:56:27;7.40;;;5.47;;
58876;SDS011;44659;47.002;9.536;2022-08-18T17:58:54;6.20;;;4.82;;
58876;SDS011;44659;47.002;9.536;2022-08-18T18:01:22;7.22;;;4.85;;
58876;SDS011;44659;47.002;9.536;2022-08-18T18:03:47;6.20;;;4.30;;
58876;SDS011;44659;47.002;9.536;2022-08-18T18:11:45;7.75;;;4.97;;
58876;SDS011;44659;47.002;9.536;2022-08-18T18:14:28;6.53;;;4.65;;
58876;SDS011;44659;47.002;9.536;2022-08-18T18:19:31;6.22;;;4.18;;
58876;SDS011;44659;47.002;9.536;2022-08-18T18:22:01;6.05;;;4.03;;
58876;SDS011;44659;47.002;9.536;2022-08-18T18:24:28;8.25;;;4.13;;
58876;SDS011;44659;47.002;9.536;2022-08-18T18:26:54;7.53;;;4.63;;
58876;SDS011;44659;47.002;9.536;2022-08-18T18:36:58;6.95;;;4.32;;
58876;SDS011;44659;47.002;9.536;2022-08-18T18:39:26;8.63;;;4.90;;
58876;SDS011;44659;47.002;9.536;2022-08-18T18:41:52;5.38;;;3.60;;
58876;SDS011;44659;47.002;9.536;2022-08-18T18:44:25;5.65;;;3.53;;
58876;SDS011;44659;47.002;9.536;2022-08-18T18:46:52;6.10;;;3.60;;
58876;SDS011;44659;47.002;9.536;2022-08-18T18:49:22;5.00;;;3.47;;
58876;SDS011;44659;47.002;9.536;2022-08-18T18:56:58;5.72;;;3.78;;
58876;SDS011;44659;47.002;9.536;2022-08-18T19:04:49;5.82;;;3.58;;
58876;SDS011;44659;47.002;9.536;2022-08-18T19:07:25;6.00;;;3.20;;
58876;SDS011;44659;47.002;9.536;2022-08-18T19:09:55;5.53;;;3.22;;
58876;SDS011;44659;47.002;9.536;2022-08-18T19:12:25;5.55;;;3.50;;
58876;SDS011;44659;47.002;9.536;2022-08-18T19:14:52;5.43;;;3.22;;
58876;SDS011;44659;47.002;9.536;2022-08-18T19:17:37;7.60;;;4.10;;
58876;SDS011;44659;47.002;9.536;2022-08-18T19:22:58;7.15;;;3.88;;
58876;SDS011;44659;47.002;9.536;2022-08-18T19:25:26;5.63;;;3.40;;
58876;SDS011;44659;47.002;9.536;2022-08-18T19:27:55;7.05;;;3.70;;
58876;SDS011;44659;47.002;9.536;2022-08-18T19:30:21;6.85;;;3.88;;
58876;SDS011;44659;47.002;9.536;2022-08-18T19:32:51;5.38;;;3.70;;
58876;SDS011;44659;47.002;9.536;2022-08-18T19:36:04;6.63;;;4.18;;
58876;SDS011;44659;47.002;9.536;2022-08-18T19:40:41;8.48;;;4.72;;
58876;SDS011;44659;47.002;9.536;2022-08-18T19:43:10;9.75;;;6.13;;
58876;SDS011;44659;47.002;9.536;2022-08-18T19:48:11;8.57;;;6.30;;
58876;SDS011;44659;47.002;9.536;2022-08-18T19:55:53;9.35;;;6.93;;
58876;SDS011;44659;47.002;9.536;2022-08-18T20:01:03;9.00;;;6.78;;